sensor_id;sensor_type;location;lat;lon;timestamp;temperature;humidity
10654;DHT22;5375;51.250;6.776;2023-04-03T00:00:23;19.00;46.20
10654;DHT22;5375;51.250;6.776;2023-04-03T00:02:48;19.00;46.10
10654;DHT22;5375;51.250;6.776;2023-04-03T00:05:14;19.00;46.10
10654;DHT22;5375;51.250;6.776;2023-04-03T00:07:39;19.00;46.10
10654;DHT22;5375;51.250;6.776;2023-04-03T00:10:05;19.00;46.10
10654;DHT22;5375;51.250;6.776;2023-04-03T00:12:31;19.00;46.10
10654;DHT22;5375;51.250;6.776;2023-04-03T00:14:57;19.00;46.10
10654;DHT22;5375;51.250;6.776;2023-04-03T00:17:22;19.00;46.10
10654;DHT22;5375;51.250;6.776;2023-04-03T00:19:48;19.00;46.10
10654;DHT22;5375;51.250;6.776;2023-04-03T00:22:14;19.00;46.10
10654;DHT22;5375;51.250;6.776;2023-04-03T00:24:39;19.00;46.10
10654;DHT22;5375;51.250;6.776;2023-04-03T00:27:05;19.00;46.10
10654;DHT22;5375;51.250;6.776;2023-04-03T00:29:30;19.00;46.10
10654;DHT22;5375;51.250;6.776;2023-04-03T00:31:56;19.00;46.10
10654;DHT22;5375;51.250;6.776;2023-04-03T00:34:21;18.90;46.00
10654;DHT22;5375;51.250;6.776;2023-04-03T00:36:47;19.00;46.10
10654;DHT22;5375;51.250;6.776;2023-04-03T00:39:13;19.00;46.00
10654;DHT22;5375;51.250;6.776;2023-04-03T00:41:38;18.90;46.00
10654;DHT22;5375;51.250;6.776;2023-04-03T00:47:10;18.90;45.90
10654;DHT22;5375;51.250;6.776;2023-04-03T00:49:37;18.90;46.00
10654;DHT22;5375;51.250;6.776;2023-04-03T00:52:05;18.90;46.00
10654;DHT22;5375;51.250;6.776;2023-04-03T00:54:32;19.00;46.00
10654;DHT22;5375;51.250;6.776;2023-04-03T00:57:00;18.90;46.00
10654;DHT22;5375;51.250;6.776;2023-04-03T00:59:33;18.90;45.90
10654;DHT22;5375;51.250;6.776;2023-04-03T01:01:59;18.90;45.90
10654;DHT22;5375;51.250;6.776;2023-04-03T01:04:31;18.90;45.90
10654;DHT22;5375;51.250;6.776;2023-04-03T01:07:07;18.90;45.90
10654;DHT22;5375;51.250;6.776;2023-04-03T01:09:34;18.90;46.00
10654;DHT22;5375;51.250;6.776;2023-04-03T01:12:25;18.90;45.90
10654;DHT22;5375;51.250;6.776;2023-04-03T01:14:54;18.90;45.90
10654;DHT22;5375;51.250;6.776;2023-04-03T01:23:12;18.80;45.80
10654;DHT22;5375;51.250;6.776;2023-04-03T01:25:46;18.80;45.80
10654;DHT22;5375;51.250;6.776;2023-04-03T01:28:15;18.80;45.80
10654;DHT22;5375;51.250;6.776;2023-04-03T01:30:48;18.80;45.80
10654;DHT22;5375;51.250;6.776;2023-04-03T01:33:15;18.80;45.80
10654;DHT22;5375;51.250;6.776;2023-04-03T01:35:41;18.80;45.80
10654;DHT22;5375;51.250;6.776;2023-04-03T01:38:06;18.80;45.80
10654;DHT22;5375;51.250;6.776;2023-04-03T01:40:32;18.70;45.70
10654;DHT22;5375;51.250;6.776;2023-04-03T01:42:58;18.80;45.70
10654;DHT22;5375;51.250;6.776;2023-04-03T01:45:23;18.80;45.70
10654;DHT22;5375;51.250;6.776;2023-04-03T01:47:49;18.80;45.70
10654;DHT22;5375;51.250;6.776;2023-04-03T01:50:15;18.90;45.80
10654;DHT22;5375;51.250;6.776;2023-04-03T01:52:40;18.80;45.80
10654;DHT22;5375;51.250;6.776;2023-04-03T01:55:06;18.80;45.80
10654;DHT22;5375;51.250;6.776;2023-04-03T01:57:32;18.80;46.00
10654;DHT22;5375;51.250;6.776;2023-04-03T01:59:57;18.80;46.00
10654;DHT22;5375;51.250;6.776;2023-04-03T02:02:23;18.90;46.10
10654;DHT22;5375;51.250;6.776;2023-04-03T02:04:48;18.90;46.00
10654;DHT22;5375;51.250;6.776;2023-04-03T02:07:14;18.80;46.00
10654;DHT22;5375;51.250;6.776;2023-04-03T02:09:40;18.80;45.90
10654;DHT22;5375;51.250;6.776;2023-04-03T02:12:06;18.80;45.80
10654;DHT22;5375;51.250;6.776;2023-04-03T02:14:31;18.80;45.80
10654;DHT22;5375;51.250;6.776;2023-04-03T02:16:57;18.80;45.80
10654;DHT22;5375;51.250;6.776;2023-04-03T02:19:23;18.80;45.80
10654;DHT22;5375;51.250;6.776;2023-04-03T02:21:48;18.80;45.80
10654;DHT22;5375;51.250;6.776;2023-04-03T02:24:14;18.80;45.70
10654;DHT22;5375;51.250;6.776;2023-04-03T02:26:39;18.80;45.70
10654;DHT22;5375;51.250;6.776;2023-04-03T02:29:05;18.80;45.70
10654;DHT22;5375;51.250;6.776;2023-04-03T02:31:31;18.80;45.70
10654;DHT22;5375;51.250;6.776;2023-04-03T02:33:57;18.80;45.70
10654;DHT22;5375;51.250;6.776;2023-04-03T02:36:22;18.80;45.70
10654;DHT22;5375;51.250;6.776;2023-04-03T02:38:48;18.80;45.60
10654;DHT22;5375;51.250;6.776;2023-04-03T02:41:13;18.70;45.50
10654;DHT22;5375;51.250;6.776;2023-04-03T02:43:39;18.70;45.50
10654;DHT22;5375;51.250;6.776;2023-04-03T02:46:05;18.70;45.50
10654;DHT22;5375;51.250;6.776;2023-04-03T02:48:31;18.70;45.50
10654;DHT22;5375;51.250;6.776;2023-04-03T02:50:57;18.70;45.50
10654;DHT22;5375;51.250;6.776;2023-04-03T02:53:23;18.80;45.60
10654;DHT22;5375;51.250;6.776;2023-04-03T02:55:49;18.70;45.50
10654;DHT22;5375;51.250;6.776;2023-04-03T02:58:14;18.70;45.40
10654;DHT22;5375;51.250;6.776;2023-04-03T03:00:40;18.70;45.50
10654;DHT22;5375;51.250;6.776;2023-04-03T03:03:06;18.60;45.40
10654;DHT22;5375;51.250;6.776;2023-04-03T03:05:32;18.70;45.50
10654;DHT22;5375;51.250;6.776;2023-04-03T03:07:57;18.70;45.60
10654;DHT22;5375;51.250;6.776;2023-04-03T03:10:23;18.70;45.70
10654;DHT22;5375;51.250;6.776;2023-04-03T03:12:49;18.70;45.80
10654;DHT22;5375;51.250;6.776;2023-04-03T03:15:15;18.70;45.80
10654;DHT22;5375;51.250;6.776;2023-04-03T03:17:42;18.70;45.70
10654;DHT22;5375;51.250;6.776;2023-04-03T03:20:09;18.70;45.70
10654;DHT22;5375;51.250;6.776;2023-04-03T03:22:35;18.70;45.60
10654;DHT22;5375;51.250;6.776;2023-04-03T03:25:01;18.70;45.50
10654;DHT22;5375;51.250;6.776;2023-04-03T03:27:27;18.70;46.10
10654;DHT22;5375;51.250;6.776;2023-04-03T03:29:53;18.70;45.40
10654;DHT22;5375;51.250;6.776;2023-04-03T03:32:18;18.80;46.10
10654;DHT22;5375;51.250;6.776;2023-04-03T03:34:44;18.70;45.40
10654;DHT22;5375;51.250;6.776;2023-04-03T03:37:10;18.70;45.40
10654;DHT22;5375;51.250;6.776;2023-04-03T03:39:36;18.70;45.30
10654;DHT22;5375;51.250;6.776;2023-04-03T03:42:01;18.70;45.30
10654;DHT22;5375;51.250;6.776;2023-04-03T03:44:27;18.70;45.40
10654;DHT22;5375;51.250;6.776;2023-04-03T03:46:54;18.70;45.30
10654;DHT22;5375;51.250;6.776;2023-04-03T03:49:20;18.70;45.30
10654;DHT22;5375;51.250;6.776;2023-04-03T03:51:46;18.70;45.20
10654;DHT22;5375;51.250;6.776;2023-04-03T03:54:13;18.70;45.20
10654;DHT22;5375;51.250;6.776;2023-04-03T03:56:39;18.70;45.10
10654;DHT22;5375;51.250;6.776;2023-04-03T03:59:05;18.70;45.10
10654;DHT22;5375;51.250;6.776;2023-04-03T04:01:31;18.80;45.00
10654;DHT22;5375;51.250;6.776;2023-04-03T04:03:56;18.80;44.90
10654;DHT22;5375;51.250;6.776;2023-04-03T04:06:22;18.80;44.90
10654;DHT22;5375;51.250;6.776;2023-04-03T04:08:48;18.90;45.10
10654;DHT22;5375;51.250;6.776;2023-04-03T04:11:14;18.90;45.10
10654;DHT22;5375;51.250;6.776;2023-04-03T04:13:39;19.00;45.20
10654;DHT22;5375;51.250;6.776;2023-04-03T04:16:06;19.00;45.30
10654;DHT22;5375;51.250;6.776;2023-04-03T04:18:32;19.00;45.30
10654;DHT22;5375;51.250;6.776;2023-04-03T04:20:58;19.00;45.30
10654;DHT22;5375;51.250;6.776;2023-04-03T04:23:23;19.00;45.40
10654;DHT22;5375;51.250;6.776;2023-04-03T04:25:49;19.00;45.40
10654;DHT22;5375;51.250;6.776;2023-04-03T04:28:16;19.00;45.40
10654;DHT22;5375;51.250;6.776;2023-04-03T04:30:41;19.10;45.40
10654;DHT22;5375;51.250;6.776;2023-04-03T04:33:07;19.10;45.40
10654;DHT22;5375;51.250;6.776;2023-04-03T04:35:34;19.20;45.40
10654;DHT22;5375;51.250;6.776;2023-04-03T04:37:59;19.10;45.30
10654;DHT22;5375;51.250;6.776;2023-04-03T04:40:25;19.10;45.40
10654;DHT22;5375;51.250;6.776;2023-04-03T04:42:51;19.20;45.40
10654;DHT22;5375;51.250;6.776;2023-04-03T04:45:16;19.20;45.40
10654;DHT22;5375;51.250;6.776;2023-04-03T04:47:42;19.20;45.40
10654;DHT22;5375;51.250;6.776;2023-04-03T04:50:08;19.20;45.40
10654;DHT22;5375;51.250;6.776;2023-04-03T04:52:34;19.20;45.40
10654;DHT22;5375;51.250;6.776;2023-04-03T04:55:00;19.20;45.30
10654;DHT22;5375;51.250;6.776;2023-04-03T04:57:25;19.20;45.20
10654;DHT22;5375;51.250;6.776;2023-04-03T04:59:51;19.20;45.00
10654;DHT22;5375;51.250;6.776;2023-04-03T05:02:17;19.30;45.00
10654;DHT22;5375;51.250;6.776;2023-04-03T05:04:42;19.20;44.90
10654;DHT22;5375;51.250;6.776;2023-04-03T05:07:08;19.30;45.60
10654;DHT22;5375;51.250;6.776;2023-04-03T05:09:33;19.20;44.80
10654;DHT22;5375;51.250;6.776;2023-04-03T05:11:59;19.30;44.90
10654;DHT22;5375;51.250;6.776;2023-04-03T05:14:25;19.20;44.80
10654;DHT22;5375;51.250;6.776;2023-04-03T05:16:51;19.30;44.80
10654;DHT22;5375;51.250;6.776;2023-04-03T05:19:20;19.20;44.80
10654;DHT22;5375;51.250;6.776;2023-04-03T05:21:47;19.30;44.80
10654;DHT22;5375;51.250;6.776;2023-04-03T05:24:13;19.20;44.70
10654;DHT22;5375;51.250;6.776;2023-04-03T05:26:40;19.20;44.70
10654;DHT22;5375;51.250;6.776;2023-04-03T05:29:05;19.30;44.80
10654;DHT22;5375;51.250;6.776;2023-04-03T05:31:31;19.20;44.70
10654;DHT22;5375;51.250;6.776;2023-04-03T05:33:57;19.30;44.70
10654;DHT22;5375;51.250;6.776;2023-04-03T05:36:22;19.30;44.80
10654;DHT22;5375;51.250;6.776;2023-04-03T05:38:48;19.30;44.80
10654;DHT22;5375;51.250;6.776;2023-04-03T05:41:14;19.30;44.80
10654;DHT22;5375;51.250;6.776;2023-04-03T05:43:40;19.30;44.80
10654;DHT22;5375;51.250;6.776;2023-04-03T05:46:13;19.30;44.70
10654;DHT22;5375;51.250;6.776;2023-04-03T05:48:40;19.30;44.70
10654;DHT22;5375;51.250;6.776;2023-04-03T05:51:07;19.30;44.70
10654;DHT22;5375;51.250;6.776;2023-04-03T05:53:35;19.30;44.70
10654;DHT22;5375;51.250;6.776;2023-04-03T05:56:04;19.30;45.40
10654;DHT22;5375;51.250;6.776;2023-04-03T05:58:30;19.30;44.70
10654;DHT22;5375;51.250;6.776;2023-04-03T06:00:56;19.30;44.70
10654;DHT22;5375;51.250;6.776;2023-04-03T06:03:22;19.30;44.70
10654;DHT22;5375;51.250;6.776;2023-04-03T06:05:48;19.30;44.60
10654;DHT22;5375;51.250;6.776;2023-04-03T06:08:13;19.30;44.60
10654;DHT22;5375;51.250;6.776;2023-04-03T06:10:39;19.30;44.70
10654;DHT22;5375;51.250;6.776;2023-04-03T06:13:05;19.30;44.70
10654;DHT22;5375;51.250;6.776;2023-04-03T06:15:31;19.40;44.70
10654;DHT22;5375;51.250;6.776;2023-04-03T06:17:57;19.30;44.60
10654;DHT22;5375;51.250;6.776;2023-04-03T06:20:22;19.40;44.60
10654;DHT22;5375;51.250;6.776;2023-04-03T06:22:48;19.30;44.50
10654;DHT22;5375;51.250;6.776;2023-04-03T06:25:14;19.40;44.60
10654;DHT22;5375;51.250;6.776;2023-04-03T06:27:40;19.40;44.60
10654;DHT22;5375;51.250;6.776;2023-04-03T06:30:06;19.30;44.50
10654;DHT22;5375;51.250;6.776;2023-04-03T06:32:32;19.30;44.50
10654;DHT22;5375;51.250;6.776;2023-04-03T06:34:58;19.30;44.50
10654;DHT22;5375;51.250;6.776;2023-04-03T06:37:24;19.40;44.60
10654;DHT22;5375;51.250;6.776;2023-04-03T06:39:54;19.40;44.60
10654;DHT22;5375;51.250;6.776;2023-04-03T06:42:19;19.40;44.60
10654;DHT22;5375;51.250;6.776;2023-04-03T06:44:45;19.40;44.50
10654;DHT22;5375;51.250;6.776;2023-04-03T06:47:15;19.40;44.50
10654;DHT22;5375;51.250;6.776;2023-04-03T06:49:41;19.40;44.50
10654;DHT22;5375;51.250;6.776;2023-04-03T06:52:07;19.40;44.50
10654;DHT22;5375;51.250;6.776;2023-04-03T06:54:33;19.40;44.40
10654;DHT22;5375;51.250;6.776;2023-04-03T06:56:59;19.40;44.40
10654;DHT22;5375;51.250;6.776;2023-04-03T06:59:25;19.40;44.50
10654;DHT22;5375;51.250;6.776;2023-04-03T07:01:51;19.40;44.40
10654;DHT22;5375;51.250;6.776;2023-04-03T07:04:17;19.40;44.40
10654;DHT22;5375;51.250;6.776;2023-04-03T07:06:44;19.40;44.40
10654;DHT22;5375;51.250;6.776;2023-04-03T07:09:10;19.40;44.40
10654;DHT22;5375;51.250;6.776;2023-04-03T07:11:36;19.40;44.40
10654;DHT22;5375;51.250;6.776;2023-04-03T07:14:02;19.40;44.40
10654;DHT22;5375;51.250;6.776;2023-04-03T07:16:28;19.40;44.40
10654;DHT22;5375;51.250;6.776;2023-04-03T07:18:56;19.40;44.40
10654;DHT22;5375;51.250;6.776;2023-04-03T07:21:22;19.40;44.40
10654;DHT22;5375;51.250;6.776;2023-04-03T07:23:48;19.40;44.30
10654;DHT22;5375;51.250;6.776;2023-04-03T07:26:13;19.40;44.30
10654;DHT22;5375;51.250;6.776;2023-04-03T07:28:39;19.40;44.30
10654;DHT22;5375;51.250;6.776;2023-04-03T07:31:08;19.50;44.40
10654;DHT22;5375;51.250;6.776;2023-04-03T07:33:39;19.40;44.30
10654;DHT22;5375;51.250;6.776;2023-04-03T07:36:06;19.40;44.40
10654;DHT22;5375;51.250;6.776;2023-04-03T07:38:33;19.40;44.30
10654;DHT22;5375;51.250;6.776;2023-04-03T07:40:58;19.40;44.30
10654;DHT22;5375;51.250;6.776;2023-04-03T07:43:24;19.40;44.20
10654;DHT22;5375;51.250;6.776;2023-04-03T07:45:50;19.40;44.30
10654;DHT22;5375;51.250;6.776;2023-04-03T07:48:18;19.40;44.20
10654;DHT22;5375;51.250;6.776;2023-04-03T07:50:44;19.40;44.20
10654;DHT22;5375;51.250;6.776;2023-04-03T07:53:09;19.40;44.20
10654;DHT22;5375;51.250;6.776;2023-04-03T07:55:36;19.40;44.20
10654;DHT22;5375;51.250;6.776;2023-04-03T07:58:09;19.40;44.20
10654;DHT22;5375;51.250;6.776;2023-04-03T08:00:36;19.50;44.30
10654;DHT22;5375;51.250;6.776;2023-04-03T08:03:02;19.50;44.20
10654;DHT22;5375;51.250;6.776;2023-04-03T08:05:27;19.50;44.30
10654;DHT22;5375;51.250;6.776;2023-04-03T08:07:53;19.50;44.20
10654;DHT22;5375;51.250;6.776;2023-04-03T08:10:18;19.40;44.20
10654;DHT22;5375;51.250;6.776;2023-04-03T08:12:46;19.40;44.20
10654;DHT22;5375;51.250;6.776;2023-04-03T08:15:12;19.50;44.20
10654;DHT22;5375;51.250;6.776;2023-04-03T08:17:38;19.50;44.20
10654;DHT22;5375;51.250;6.776;2023-04-03T08:20:05;19.50;44.20
10654;DHT22;5375;51.250;6.776;2023-04-03T08:22:32;19.50;44.20
10654;DHT22;5375;51.250;6.776;2023-04-03T08:24:58;19.50;44.20
10654;DHT22;5375;51.250;6.776;2023-04-03T08:27:23;19.50;44.20
10654;DHT22;5375;51.250;6.776;2023-04-03T08:29:49;19.50;44.20
10654;DHT22;5375;51.250;6.776;2023-04-03T08:32:14;19.50;44.20
10654;DHT22;5375;51.250;6.776;2023-04-03T08:34:41;19.50;44.20
10654;DHT22;5375;51.250;6.776;2023-04-03T08:37:06;19.50;44.20
10654;DHT22;5375;51.250;6.776;2023-04-03T08:39:32;19.50;44.20
10654;DHT22;5375;51.250;6.776;2023-04-03T08:41:59;19.50;44.20
10654;DHT22;5375;51.250;6.776;2023-04-03T08:45:10;19.50;44.20
10654;DHT22;5375;51.250;6.776;2023-04-03T08:47:38;19.50;44.20
10654;DHT22;5375;51.250;6.776;2023-04-03T08:50:10;19.50;44.20
10654;DHT22;5375;51.250;6.776;2023-04-03T08:52:41;19.50;44.20
10654;DHT22;5375;51.250;6.776;2023-04-03T08:55:12;19.50;44.20
10654;DHT22;5375;51.250;6.776;2023-04-03T08:57:43;19.50;44.20
10654;DHT22;5375;51.250;6.776;2023-04-03T09:00:28;19.60;44.20
10654;DHT22;5375;51.250;6.776;2023-04-03T09:02:56;19.50;44.10
10654;DHT22;5375;51.250;6.776;2023-04-03T09:08:22;19.50;44.20
10654;DHT22;5375;51.250;6.776;2023-04-03T09:10:51;19.50;44.20
10654;DHT22;5375;51.250;6.776;2023-04-03T09:13:33;19.50;44.20
10654;DHT22;5375;51.250;6.776;2023-04-03T09:16:04;19.50;44.20
10654;DHT22;5375;51.250;6.776;2023-04-03T09:18:42;19.50;44.20
10654;DHT22;5375;51.250;6.776;2023-04-03T09:21:22;19.50;44.20
10654;DHT22;5375;51.250;6.776;2023-04-03T09:23:52;19.50;44.20
10654;DHT22;5375;51.250;6.776;2023-04-03T09:26:25;19.50;44.10
10654;DHT22;5375;51.250;6.776;2023-04-03T09:28:58;18.20;43.50
10654;DHT22;5375;51.250;6.776;2023-04-03T09:31:36;19.50;44.10
10654;DHT22;5375;51.250;6.776;2023-04-03T09:34:06;19.50;44.10
10654;DHT22;5375;51.250;6.776;2023-04-03T09:36:55;19.50;44.10
10654;DHT22;5375;51.250;6.776;2023-04-03T09:39:24;19.50;44.10
10654;DHT22;5375;51.250;6.776;2023-04-03T09:44:35;19.50;44.10
10654;DHT22;5375;51.250;6.776;2023-04-03T09:47:28;19.50;44.10
10654;DHT22;5375;51.250;6.776;2023-04-03T09:52:39;19.50;44.10
10654;DHT22;5375;51.250;6.776;2023-04-03T09:55:25;19.50;44.10
10654;DHT22;5375;51.250;6.776;2023-04-03T09:58:01;19.50;44.10
10654;DHT22;5375;51.250;6.776;2023-04-03T10:00:32;19.50;44.10
10654;DHT22;5375;51.250;6.776;2023-04-03T10:02:59;19.50;44.10
10654;DHT22;5375;51.250;6.776;2023-04-03T10:05:32;19.50;44.10
10654;DHT22;5375;51.250;6.776;2023-04-03T10:08:10;19.50;44.20
10654;DHT22;5375;51.250;6.776;2023-04-03T10:10:37;19.50;44.20
10654;DHT22;5375;51.250;6.776;2023-04-03T10:13:09;19.40;44.10
10654;DHT22;5375;51.250;6.776;2023-04-03T10:15:50;19.40;44.10
10654;DHT22;5375;51.250;6.776;2023-04-03T10:19:06;19.40;44.10
10654;DHT22;5375;51.250;6.776;2023-04-03T10:21:19;19.50;44.20
10654;DHT22;5375;51.250;6.776;2023-04-03T10:51:24;19.30;44.00
10654;DHT22;5375;51.250;6.776;2023-04-03T10:54:08;19.30;44.00
10654;DHT22;5375;51.250;6.776;2023-04-03T10:56:41;19.30;44.10
10654;DHT22;5375;51.250;6.776;2023-04-03T10:59:32;19.40;44.10
10654;DHT22;5375;51.250;6.776;2023-04-03T11:02:26;19.30;44.00
10654;DHT22;5375;51.250;6.776;2023-04-03T11:05:01;19.40;44.00
10654;DHT22;5375;51.250;6.776;2023-04-03T11:07:32;19.30;44.00
10654;DHT22;5375;51.250;6.776;2023-04-03T11:10:03;19.40;44.10
10654;DHT22;5375;51.250;6.776;2023-04-03T11:12:41;19.40;44.10
10654;DHT22;5375;51.250;6.776;2023-04-03T11:15:16;19.30;44.00
10654;DHT22;5375;51.250;6.776;2023-04-03T11:18:06;19.40;44.10
10654;DHT22;5375;51.250;6.776;2023-04-03T11:20:35;19.30;44.00
10654;DHT22;5375;51.250;6.776;2023-04-03T11:23:13;19.40;44.00
10654;DHT22;5375;51.250;6.776;2023-04-03T11:25:41;19.40;44.00
10654;DHT22;5375;51.250;6.776;2023-04-03T11:28:15;19.30;44.00
10654;DHT22;5375;51.250;6.776;2023-04-03T11:36:45;19.30;43.90
10654;DHT22;5375;51.250;6.776;2023-04-03T11:39:35;19.30;44.00
10654;DHT22;5375;51.250;6.776;2023-04-03T11:42:22;19.30;43.90
10654;DHT22;5375;51.250;6.776;2023-04-03T11:44:50;19.30;43.90
10654;DHT22;5375;51.250;6.776;2023-04-03T11:47:45;19.40;44.00
10654;DHT22;5375;51.250;6.776;2023-04-03T12:08:47;19.40;44.10
10654;DHT22;5375;51.250;6.776;2023-04-03T12:13:40;19.30;44.10
10654;DHT22;5375;51.250;6.776;2023-04-03T12:16:08;19.40;44.10
10654;DHT22;5375;51.250;6.776;2023-04-03T12:27:01;19.40;44.10
10654;DHT22;5375;51.250;6.776;2023-04-03T12:29:38;19.40;44.10
10654;DHT22;5375;51.250;6.776;2023-04-03T12:32:26;19.40;44.20
10654;DHT22;5375;51.250;6.776;2023-04-03T12:38:22;19.40;44.20
10654;DHT22;5375;51.250;6.776;2023-04-03T12:46:43;19.40;44.20
10654;DHT22;5375;51.250;6.776;2023-04-03T12:49:33;19.40;44.20
10654;DHT22;5375;51.250;6.776;2023-04-03T12:52:04;19.40;44.20
10654;DHT22;5375;51.250;6.776;2023-04-03T12:54:38;19.40;44.20
10654;DHT22;5375;51.250;6.776;2023-04-03T12:57:16;19.50;44.20
10654;DHT22;5375;51.250;6.776;2023-04-03T12:59:42;19.50;44.20
10654;DHT22;5375;51.250;6.776;2023-04-03T13:02:31;19.40;44.20
10654;DHT22;5375;51.250;6.776;2023-04-03T13:04:58;19.50;44.30
10654;DHT22;5375;51.250;6.776;2023-04-03T13:07:35;19.50;45.00
10654;DHT22;5375;51.250;6.776;2023-04-03T13:10:16;19.50;44.40
10654;DHT22;5375;51.250;6.776;2023-04-03T13:12:53;19.50;44.50
10654;DHT22;5375;51.250;6.776;2023-04-03T13:15:21;19.50;44.60
10654;DHT22;5375;51.250;6.776;2023-04-03T13:17:48;19.50;44.60
10654;DHT22;5375;51.250;6.776;2023-04-03T13:20:27;19.50;44.60
10654;DHT22;5375;51.250;6.776;2023-04-03T13:23:02;19.50;44.50
10654;DHT22;5375;51.250;6.776;2023-04-03T13:25:32;19.50;44.50
10654;DHT22;5375;51.250;6.776;2023-04-03T13:27:59;19.50;44.50
10654;DHT22;5375;51.250;6.776;2023-04-03T13:30:34;19.50;44.50
10654;DHT22;5375;51.250;6.776;2023-04-03T13:33:04;19.50;44.50
10654;DHT22;5375;51.250;6.776;2023-04-03T13:35:37;19.50;44.60
10654;DHT22;5375;51.250;6.776;2023-04-03T13:40:54;19.50;44.70
10654;DHT22;5375;51.250;6.776;2023-04-03T13:43:23;19.50;44.80
10654;DHT22;5375;51.250;6.776;2023-04-03T13:48:21;19.60;44.60
10654;DHT22;5375;51.250;6.776;2023-04-03T13:51:01;19.40;44.50
10654;DHT22;5375;51.250;6.776;2023-04-03T13:53:30;19.60;44.60
10654;DHT22;5375;51.250;6.776;2023-04-03T13:56:08;19.50;44.70
10654;DHT22;5375;51.250;6.776;2023-04-03T13:58:36;19.50;44.60
10654;DHT22;5375;51.250;6.776;2023-04-03T14:01:08;19.60;44.60
10654;DHT22;5375;51.250;6.776;2023-04-03T14:03:44;19.60;44.60
10654;DHT22;5375;51.250;6.776;2023-04-03T14:06:14;19.50;44.50
10654;DHT22;5375;51.250;6.776;2023-04-03T14:08:41;19.50;44.50
10654;DHT22;5375;51.250;6.776;2023-04-03T14:11:29;19.50;44.50
10654;DHT22;5375;51.250;6.776;2023-04-03T14:14:06;19.50;44.60
10654;DHT22;5375;51.250;6.776;2023-04-03T14:16:39;19.60;44.70
10654;DHT22;5375;51.250;6.776;2023-04-03T14:19:06;19.60;44.70
10654;DHT22;5375;51.250;6.776;2023-04-03T14:21:31;19.50;44.60
10654;DHT22;5375;51.250;6.776;2023-04-03T14:23:57;19.50;44.60
10654;DHT22;5375;51.250;6.776;2023-04-03T14:26:24;19.50;44.60
10654;DHT22;5375;51.250;6.776;2023-04-03T14:28:53;19.50;44.50
10654;DHT22;5375;51.250;6.776;2023-04-03T14:31:20;19.50;44.50
10654;DHT22;5375;51.250;6.776;2023-04-03T14:33:46;19.50;44.50
10654;DHT22;5375;51.250;6.776;2023-04-03T14:36:17;19.50;44.50
10654;DHT22;5375;51.250;6.776;2023-04-03T14:38:44;19.50;44.50
10654;DHT22;5375;51.250;6.776;2023-04-03T14:41:15;19.50;44.50
10654;DHT22;5375;51.250;6.776;2023-04-03T14:43:42;19.50;44.50
10654;DHT22;5375;51.250;6.776;2023-04-03T14:46:14;19.60;44.50
10654;DHT22;5375;51.250;6.776;2023-04-03T14:48:40;19.50;44.50
10654;DHT22;5375;51.250;6.776;2023-04-03T14:51:05;19.40;44.40
10654;DHT22;5375;51.250;6.776;2023-04-03T14:53:32;19.50;44.50
10654;DHT22;5375;51.250;6.776;2023-04-03T14:55:58;19.50;44.50
10654;DHT22;5375;51.250;6.776;2023-04-03T14:58:23;19.50;44.60
10654;DHT22;5375;51.250;6.776;2023-04-03T15:00:49;19.50;44.70
10654;DHT22;5375;51.250;6.776;2023-04-03T15:03:20;19.50;44.70
10654;DHT22;5375;51.250;6.776;2023-04-03T15:05:47;19.50;44.70
10654;DHT22;5375;51.250;6.776;2023-04-03T15:08:19;19.50;44.70
10654;DHT22;5375;51.250;6.776;2023-04-03T15:10:46;19.50;44.70
10654;DHT22;5375;51.250;6.776;2023-04-03T15:13:12;19.50;44.70
10654;DHT22;5375;51.250;6.776;2023-04-03T15:15:39;19.50;44.70
10654;DHT22;5375;51.250;6.776;2023-04-03T15:18:04;19.50;44.70
10654;DHT22;5375;51.250;6.776;2023-04-03T15:20:30;19.50;44.70
10654;DHT22;5375;51.250;6.776;2023-04-03T15:22:59;19.50;44.70
10654;DHT22;5375;51.250;6.776;2023-04-03T15:25:27;19.50;44.70
10654;DHT22;5375;51.250;6.776;2023-04-03T15:27:54;19.50;44.70
10654;DHT22;5375;51.250;6.776;2023-04-03T15:30:20;19.50;44.70
10654;DHT22;5375;51.250;6.776;2023-04-03T15:32:47;19.50;44.60
10654;DHT22;5375;51.250;6.776;2023-04-03T15:35:13;19.50;44.70
10654;DHT22;5375;51.250;6.776;2023-04-03T15:37:38;19.60;44.70
10654;DHT22;5375;51.250;6.776;2023-04-03T15:40:06;19.50;45.20
10654;DHT22;5375;51.250;6.776;2023-04-03T15:42:32;19.50;44.70
10654;DHT22;5375;51.250;6.776;2023-04-03T15:44:58;19.60;44.70
10654;DHT22;5375;51.250;6.776;2023-04-03T15:47:25;19.60;44.70
10654;DHT22;5375;51.250;6.776;2023-04-03T15:49:51;19.60;44.70
10654;DHT22;5375;51.250;6.776;2023-04-03T15:52:17;19.60;44.80
10654;DHT22;5375;51.250;6.776;2023-04-03T15:54:42;19.60;44.80
10654;DHT22;5375;51.250;6.776;2023-04-03T15:57:08;19.60;44.80
10654;DHT22;5375;51.250;6.776;2023-04-03T15:59:34;19.50;44.80
10654;DHT22;5375;51.250;6.776;2023-04-03T16:02:01;19.50;44.80
10654;DHT22;5375;51.250;6.776;2023-04-03T16:04:29;19.50;44.90
10654;DHT22;5375;51.250;6.776;2023-04-03T16:06:55;19.60;44.90
10654;DHT22;5375;51.250;6.776;2023-04-03T16:09:21;19.60;44.90
10654;DHT22;5375;51.250;6.776;2023-04-03T16:11:46;19.50;44.90
10654;DHT22;5375;51.250;6.776;2023-04-03T16:14:12;19.50;44.90
10654;DHT22;5375;51.250;6.776;2023-04-03T16:16:38;19.50;44.90
10654;DHT22;5375;51.250;6.776;2023-04-03T16:19:04;19.50;44.80
10654;DHT22;5375;51.250;6.776;2023-04-03T16:21:31;19.50;44.80
10654;DHT22;5375;51.250;6.776;2023-04-03T16:24:01;19.50;44.70
10654;DHT22;5375;51.250;6.776;2023-04-03T16:26:27;19.50;44.70
10654;DHT22;5375;51.250;6.776;2023-04-03T16:28:53;19.50;44.70
10654;DHT22;5375;51.250;6.776;2023-04-03T16:31:19;19.50;44.70
10654;DHT22;5375;51.250;6.776;2023-04-03T16:33:45;19.50;44.70
10654;DHT22;5375;51.250;6.776;2023-04-03T16:36:11;19.60;44.70
10654;DHT22;5375;51.250;6.776;2023-04-03T16:38:37;19.50;44.60
10654;DHT22;5375;51.250;6.776;2023-04-03T16:41:02;19.50;44.60
10654;DHT22;5375;51.250;6.776;2023-04-03T16:43:31;19.50;44.60
10654;DHT22;5375;51.250;6.776;2023-04-03T16:45:56;19.50;44.60
10654;DHT22;5375;51.250;6.776;2023-04-03T16:48:22;19.50;44.50
10654;DHT22;5375;51.250;6.776;2023-04-03T16:50:48;19.50;44.50
10654;DHT22;5375;51.250;6.776;2023-04-03T16:53:16;19.50;44.50
10654;DHT22;5375;51.250;6.776;2023-04-03T16:55:41;19.50;44.50
10654;DHT22;5375;51.250;6.776;2023-04-03T16:58:07;19.50;44.50
10654;DHT22;5375;51.250;6.776;2023-04-03T17:00:34;19.60;44.50
10654;DHT22;5375;51.250;6.776;2023-04-03T17:03:00;19.50;44.50
10654;DHT22;5375;51.250;6.776;2023-04-03T17:05:26;19.50;44.50
10654;DHT22;5375;51.250;6.776;2023-04-03T17:07:51;19.50;44.40
10654;DHT22;5375;51.250;6.776;2023-04-03T17:10:17;19.50;44.40
10654;DHT22;5375;51.250;6.776;2023-04-03T17:12:43;19.50;44.40
10654;DHT22;5375;51.250;6.776;2023-04-03T17:15:09;19.50;44.40
10654;DHT22;5375;51.250;6.776;2023-04-03T17:17:35;19.50;44.50
10654;DHT22;5375;51.250;6.776;2023-04-03T17:20:01;19.50;44.40
10654;DHT22;5375;51.250;6.776;2023-04-03T17:22:28;19.50;44.40
10654;DHT22;5375;51.250;6.776;2023-04-03T17:24:54;19.50;44.40
10654;DHT22;5375;51.250;6.776;2023-04-03T17:27:20;19.50;44.40